Terminal Aerodrome Forecast
Issued by NWS Binghamton, NY

Home | Current Version | Previous Version | Text Only | Print | Product List | Glossary On
Versions: 1 2 3 4 5 6 7 8 9 10 11 12 13 14 15 16 17 18
744
FTUS41 KBGM 250536
TAFSYR
TAF
KSYR 250536Z 2506/2606 12006KT P6SM OVC120
      TEMPO 2511/2515 -SHRA OVC040
     FM251500 09012KT P6SM -RA OVC030
     FM251800 09011KT 5SM -RA BR OVC018
     FM252100 09011KT P6SM OVC015
     FM260200 08005KT P6SM OVC010=

USA.gov is the U.S. government's official web portal to all federal, state and local government web resources and services.